Time;durP1;ratioP1;P1;durP2;ratioP2;P2;SDS_P1;SDS_P2;PMS_P1;PMS_P2;Temp;Humidity;BMP_temperature;BMP_pressure;BME280_temperature;BME280_humidity;BME280_pressure;Samples;Min_cycle;Max_cycle;Signal;HPM_P1;HPM_P2
2022/09/09 00:02:17;;;;;;;246.77;137.67;;;;;;;;;;5062410;28;20206;-72
2022/09/09 00:04:46;;;;;;;276.80;152.60;;;;;;;;;;5059334;28;20225;-71
2022/09/09 00:07:12;;;;;;;254.60;140.57;;;;;;;;;;5064159;28;20187;-71
2022/09/09 00:09:48;;;;;;;265.27;143.97;;;;;;;;;;5065921;28;20217;-72
2022/09/09 00:12:23;;;;;;;275.80;149.23;;;;;;;;;;5074822;28;20206;-72
2022/09/09 00:14:55;;;;;;;238.68;136.65;;;;;;;;;;5060053;28;20179;-72
2022/09/09 00:17:31;;;;;;;232.27;134.60;;;;;;;;;;5065147;28;20178;-72
2022/09/09 00:20:00;;;;;;;247.73;140.03;;;;;;;;;;5059476;28;20324;-72
2022/09/09 00:22:28;;;;;;;265.40;144.03;;;;;;;;;;5063088;28;20207;-72
2022/09/09 00:25:03;;;;;;;252.25;142.38;;;;;;;;;;5064865;28;20190;-71
2022/09/09 00:27:29;;;;;;;257.07;139.83;;;;;;;;;;5064286;28;20182;-71
2022/09/09 00:30:13;;;;;;;262.67;145.07;;;;;;;;;;5063869;28;20218;-72
2022/09/09 00:32:39;;;;;;;228.63;129.87;;;;;;;;;;5069359;28;20213;-72
2022/09/09 00:35:17;;;;;;;249.13;139.80;;;;;;;;;;5065941;28;20179;-72
2022/09/09 00:37:44;;;;;;;258.27;141.67;;;;;;;;;;5061787;28;20639;-71
2022/09/09 00:40:22;;;;;;;298.50;151.73;;;;;;;;;;5061956;28;20290;-72
2022/09/09 00:42:51;;;;;;;265.03;145.57;;;;;;;;;;5061262;28;20210;-71
2022/09/09 00:45:26;;;;;;;266.97;146.30;;;;;;;;;;5061454;28;20270;-71
2022/09/09 00:47:53;;;;;;;268.60;145.70;;;;;;;;;;5060706;28;20193;-72
2022/09/09 00:50:38;;;;;;;235.33;136.33;;;;;;;;;;5056004;28;20214;-71
2022/09/09 00:53:10;;;;;;;247.57;138.77;;;;;;;;;;5072848;28;20183;-72
2022/09/09 00:55:45;;;;;;;305.80;161.57;;;;;;;;;;5061451;28;20182;-72
2022/09/09 00:58:12;;;;;;;279.03;148.47;;;;;;;;;;5062807;28;20207;-72
2022/09/09 01:00:51;;;;;;;249.70;140.70;;;;;;;;;;5066611;28;20214;-72
2022/09/09 01:03:24;;;;;;;310.87;161.77;;;;;;;;;;5057824;28;20197;-71
2022/09/09 01:05:55;;;;;;;278.67;148.27;;;;;;;;;;5063655;28;20199;-71
2022/09/09 01:08:28;;;;;;;292.33;156.03;;;;;;;;;;5064038;28;20560;-71
2022/09/09 01:10:54;;;;;;;240.45;136.65;;;;;;;;;;5064057;28;20210;-71
2022/09/09 01:13:24;;;;;;;260.77;141.93;;;;;;;;;;5059693;28;20197;-71
2022/09/09 01:15:53;;;;;;;291.37;155.23;;;;;;;;;;5064707;28;20167;-71
2022/09/09 01:18:20;;;;;;;386.40;191.93;;;;;;;;;;5060938;28;20203;-71
2022/09/09 01:20:52;;;;;;;224.87;128.93;;;;;;;;;;5057955;28;20617;-71
2022/09/09 01:23:34;;;;;;;235.43;131.23;;;;;;;;;;5060541;28;20194;-71
2022/09/09 01:26:00;;;;;;;278.30;146.85;;;;;;;;;;5058457;28;20201;-72
2022/09/09 01:28:27;;;;;;;225.10;129.57;;;;;;;;;;5063740;28;20660;-71
2022/09/09 01:30:53;;;;;;;234.00;132.07;;;;;;;;;;5059782;28;20916;-72
2022/09/09 01:33:19;;;;;;;304.47;160.97;;;;;;;;;;5060303;28;20656;-71
2022/09/09 01:35:58;;;;;;;298.50;158.73;;;;;;;;;;5054603;28;20265;-71
2022/09/09 01:38:25;;;;;;;249.87;137.73;;;;;;;;;;5062905;28;21742;-71
2022/09/09 01:40:52;;;;;;;221.10;127.03;;;;;;;;;;5060126;28;20272;-71
2022/09/09 01:43:22;;;;;;;223.13;130.00;;;;;;;;;;5066312;28;20198;-72
2022/09/09 01:45:49;;;;;;;229.67;130.20;;;;;;;;;;5062917;28;20189;-71
2022/09/09 01:48:16;;;;;;;286.13;146.27;;;;;;;;;;5063243;28;20293;-71
2022/09/09 01:50:42;;;;;;;251.33;138.90;;;;;;;;;;5060032;28;20241;-72
2022/09/09 01:53:08;;;;;;;260.87;139.00;;;;;;;;;;5059974;28;20210;-72
2022/09/09 01:55:38;;;;;;;285.37;151.53;;;;;;;;;;5057587;28;20190;-72
2022/09/09 01:58:12;;;;;;;279.07;143.97;;;;;;;;;;5061889;28;20179;-72
2022/09/09 02:00:42;;;;;;;265.53;140.93;;;;;;;;;;5058961;28;20203;-71
2022/09/09 02:03:25;;;;;;;268.50;145.30;;;;;;;;;;5063136;28;20191;-72
2022/09/09 02:06:09;;;;;;;274.90;146.00;;;;;;;;;;5053582;28;20205;-72
2022/09/09 02:08:35;;;;;;;248.33;135.43;;;;;;;;;;5058055;28;20283;-71
2022/09/09 02:13:38;;;;;;;218.50;126.63;;;;;;;;;;5037588;28;20705;-50
2022/09/09 02:16:09;;;;;;;252.13;144.93;;;;;;;;;;5035073;28;20187;-50
2022/09/09 02:18:48;;;;;;;213.70;131.60;;;;;;;;;;5042414;28;20183;-50
2022/09/09 02:21:15;;;;;;;240.30;140.83;;;;;;;;;;5031648;28;20195;-50
2022/09/09 02:23:43;;;;;;;292.40;152.40;;;;;;;;;;5031923;28;20202;-50
2022/09/09 02:26:10;;;;;;;277.53;149.47;;;;;;;;;;5034911;28;20240;-50
2022/09/09 02:28:37;;;;;;;192.07;119.20;;;;;;;;;;5040482;28;20461;-50
2022/09/09 02:31:04;;;;;;;179.93;116.30;;;;;;;;;;5047058;28;20705;-48
2022/09/09 02:33:34;;;;;;;194.10;118.03;;;;;;;;;;5066018;28;20179;-49
2022/09/09 02:36:03;;;;;;;194.30;119.57;;;;;;;;;;5066337;28;20187;-49
2022/09/09 02:38:30;;;;;;;156.10;109.00;;;;;;;;;;5065997;28;20175;-48
2022/09/09 02:40:56;;;;;;;156.03;109.37;;;;;;;;;;5066495;28;20171;-49
2022/09/09 02:43:23;;;;;;;178.93;115.03;;;;;;;;;;5065866;28;20210;-49
2022/09/09 02:46:02;;;;;;;189.27;118.80;;;;;;;;;;5066032;28;20222;-49
2022/09/09 02:48:37;;;;;;;185.03;116.47;;;;;;;;;;5065787;28;20205;-49
2022/09/09 02:51:04;;;;;;;169.70;111.57;;;;;;;;;;5065783;28;20581;-48
2022/09/09 02:53:38;;;;;;;209.57;123.50;;;;;;;;;;5065985;28;20210;-48
2022/09/09 02:56:06;;;;;;;176.13;112.27;;;;;;;;;;5065447;28;20206;-49
2022/09/09 02:58:32;;;;;;;152.00;105.97;;;;;;;;;;5066005;28;20179;-49
2022/09/09 03:01:00;;;;;;;177.57;118.47;;;;;;;;;;5065615;28;20434;-49
2022/09/09 03:03:26;;;;;;;187.80;117.27;;;;;;;;;;5065049;28;20214;-49
2022/09/09 03:05:52;;;;;;;176.33;112.20;;;;;;;;;;5065481;28;20175;-49
2022/09/09 03:08:18;;;;;;;176.40;113.50;;;;;;;;;;5065341;28;20176;-49
2022/09/09 03:10:44;;;;;;;158.43;108.60;;;;;;;;;;5065704;28;20574;-49
2022/09/09 03:13:12;;;;;;;171.80;111.20;;;;;;;;;;5065317;28;20200;-49
2022/09/09 03:15:38;;;;;;;179.83;114.73;;;;;;;;;;5065150;28;20278;-49
2022/09/09 03:18:04;;;;;;;171.13;112.33;;;;;;;;;;5065399;28;20670;-49
2022/09/09 03:20:31;;;;;;;194.13;122.30;;;;;;;;;;5064864;28;20543;-49
2022/09/09 03:22:57;;;;;;;181.83;116.90;;;;;;;;;;5063295;28;20278;-49
2022/09/09 03:25:23;;;;;;;167.73;113.83;;;;;;;;;;5051756;28;20188;-49
2022/09/09 03:27:50;;;;;;;158.80;106.93;;;;;;;;;;5051748;28;20519;-49
2022/09/09 03:30:16;;;;;;;151.10;107.00;;;;;;;;;;5052006;28;20176;-48
2022/09/09 03:32:42;;;;;;;159.40;107.83;;;;;;;;;;5051751;28;20276;-49
2022/09/09 03:35:08;;;;;;;168.40;114.77;;;;;;;;;;5051613;28;20374;-49
2022/09/09 03:37:34;;;;;;;179.27;115.77;;;;;;;;;;5051858;28;20178;-49
2022/09/09 03:40:00;;;;;;;172.10;112.37;;;;;;;;;;5051660;28;20183;-49
2022/09/09 03:42:27;;;;;;;172.03;111.40;;;;;;;;;;5051499;28;20203;-48
2022/09/09 03:44:53;;;;;;;182.77;115.03;;;;;;;;;;5051585;28;20198;-49
2022/09/09 03:47:21;;;;;;;181.17;112.57;;;;;;;;;;5051680;28;20237;-49
2022/09/09 03:49:48;;;;;;;174.77;111.77;;;;;;;;;;5051373;28;20207;-49
2022/09/09 03:52:14;;;;;;;181.33;115.03;;;;;;;;;;5050013;28;20245;-49
2022/09/09 03:54:42;;;;;;;149.83;110.37;;;;;;;;;;5051295;28;20245;-49
2022/09/09 03:57:08;;;;;;;174.43;115.17;;;;;;;;;;5051625;28;20543;-49
2022/09/09 03:59:34;;;;;;;189.27;121.33;;;;;;;;;;5051469;28;20187;-49
2022/09/09 04:02:00;;;;;;;180.87;118.87;;;;;;;;;;5051254;28;20229;-49
2022/09/09 04:04:26;;;;;;;150.20;110.37;;;;;;;;;;5050889;28;20278;-49
2022/09/09 04:06:53;;;;;;;179.27;117.37;;;;;;;;;;5051867;28;20171;-49
2022/09/09 04:09:19;;;;;;;185.00;120.90;;;;;;;;;;5051069;28;20172;-49
2022/09/09 04:11:45;;;;;;;174.93;113.70;;;;;;;;;;5050821;28;20535;-49
2022/09/09 04:14:12;;;;;;;174.33;117.10;;;;;;;;;;5051175;28;20619;-49
2022/09/09 04:16:38;;;;;;;172.70;113.23;;;;;;;;;;5051070;28;20548;-49
2022/09/09 04:19:06;;;;;;;140.50;105.37;;;;;;;;;;5050966;28;20262;-49
2022/09/09 04:21:32;;;;;;;167.73;114.10;;;;;;;;;;5051393;28;20266;-49
2022/09/09 04:23:58;;;;;;;168.87;117.37;;;;;;;;;;5050675;28;20249;-49
2022/09/09 04:26:24;;;;;;;177.07;119.10;;;;;;;;;;5050869;28;20176;-49
2022/09/09 04:28:50;;;;;;;171.80;118.07;;;;;;;;;;5050748;28;20270;-49
2022/09/09 04:31:18;;;;;;;184.73;119.80;;;;;;;;;;5050658;28;20225;-51
2022/09/09 04:33:44;;;;;;;184.13;124.37;;;;;;;;;;5050225;28;20198;-51
2022/09/09 04:36:10;;;;;;;154.30;112.07;;;;;;;;;;5049432;28;20185;-51
2022/09/09 04:38:36;;;;;;;172.27;116.17;;;;;;;;;;5050924;28;20176;-51
2022/09/09 04:41:02;;;;;;;176.53;118.27;;;;;;;;;;5050633;28;20182;-51
2022/09/09 04:43:30;;;;;;;180.10;116.33;;;;;;;;;;5050670;28;20204;-51
2022/09/09 04:45:56;;;;;;;205.20;126.90;;;;;;;;;;5050285;28;20167;-50
2022/09/09 04:48:22;;;;;;;197.43;123.70;;;;;;;;;;5050007;28;20176;-50
2022/09/09 04:50:58;;;;;;;180.67;117.13;;;;;;;;;;5050382;28;20639;-51
2022/09/09 04:53:25;;;;;;;180.70;118.87;;;;;;;;;;5049908;28;20844;-50
2022/09/09 04:55:51;;;;;;;210.47;131.13;;;;;;;;;;5049692;28;20175;-50
2022/09/09 04:58:18;;;;;;;191.03;125.23;;;;;;;;;;5050129;28;20191;-50
2022/09/09 05:00:43;;;;;;;219.60;154.20;;;;;;;;;;5049169;28;20172;-51
2022/09/09 05:03:09;;;;;;;149.47;110.37;;;;;;;;;;5049733;28;20200;-51
2022/09/09 05:05:36;;;;;;;189.73;125.40;;;;;;;;;;5049173;28;20191;-50
2022/09/09 05:08:05;;;;;;;190.80;125.10;;;;;;;;;;5049814;28;20259;-50
2022/09/09 05:10:32;;;;;;;211.37;130.93;;;;;;;;;;5049218;28;20176;-51
2022/09/09 05:12:58;;;;;;;198.07;124.50;;;;;;;;;;5049443;28;20199;-50
2022/09/09 05:15:24;;;;;;;191.87;126.07;;;;;;;;;;5049443;28;20200;-50
2022/09/09 05:17:52;;;;;;;218.73;131.87;;;;;;;;;;5049343;28;20211;-50
2022/09/09 05:20:18;;;;;;;202.27;127.63;;;;;;;;;;5049281;28;20187;-50
2022/09/09 05:22:44;;;;;;;196.63;125.17;;;;;;;;;;5048849;28;20277;-50
2022/09/09 05:25:10;;;;;;;181.23;121.53;;;;;;;;;;5049598;28;20206;-50
2022/09/09 05:27:36;;;;;;;195.07;125.53;;;;;;;;;;5049752;28;20175;-50
2022/09/09 05:30:02;;;;;;;266.53;149.50;;;;;;;;;;5046726;28;20180;-50
2022/09/09 05:32:32;;;;;;;209.93;129.53;;;;;;;;;;5046756;28;20172;-50
2022/09/09 05:34:58;;;;;;;203.67;123.47;;;;;;;;;;5049048;28;20286;-50
2022/09/09 05:37:25;;;;;;;193.23;124.03;;;;;;;;;;5049341;28;20355;-50
2022/09/09 05:39:51;;;;;;;206.33;127.27;;;;;;;;;;5049117;28;20195;-51
2022/09/09 05:42:17;;;;;;;224.17;131.67;;;;;;;;;;5049024;28;20211;-51
2022/09/09 05:44:44;;;;;;;193.27;123.77;;;;;;;;;;5049108;28;20249;-50
2022/09/09 05:47:11;;;;;;;214.77;131.27;;;;;;;;;;5048809;28;20199;-51
2022/09/09 05:49:37;;;;;;;174.40;120.10;;;;;;;;;;5049334;28;20821;-50
2022/09/09 05:52:03;;;;;;;195.53;126.57;;;;;;;;;;5048943;28;20190;-51
2022/09/09 05:54:29;;;;;;;191.53;124.73;;;;;;;;;;5049224;28;20207;-50
2022/09/09 05:56:55;;;;;;;204.37;132.60;;;;;;;;;;5049079;28;20552;-50
2022/09/09 05:59:23;;;;;;;217.37;134.00;;;;;;;;;;5048886;28;20172;-50
2022/09/09 06:01:49;;;;;;;222.50;135.53;;;;;;;;;;5048771;28;20230;-51
2022/09/09 06:04:15;;;;;;;225.70;138.20;;;;;;;;;;5048563;28;20224;-50
2022/09/09 06:06:41;;;;;;;193.67;118.50;;;;;;;;;;5048978;28;20255;-50
2022/09/09 06:09:13;;;;;;;216.43;133.00;;;;;;;;;;5048939;28;20620;-50
2022/09/09 06:11:39;;;;;;;217.87;133.97;;;;;;;;;;5048878;28;20206;-50
2022/09/09 06:14:06;;;;;;;207.60;132.53;;;;;;;;;;5046743;28;20282;-49
2022/09/09 06:16:32;;;;;;;239.93;142.97;;;;;;;;;;5048754;28;20175;-49
2022/09/09 06:18:59;;;;;;;220.03;134.50;;;;;;;;;;5048593;28;20176;-50
2022/09/09 06:21:25;;;;;;;211.10;129.17;;;;;;;;;;5048777;28;20183;-50
2022/09/09 06:23:52;;;;;;;211.27;134.80;;;;;;;;;;5048505;28;20196;-49
2022/09/09 06:26:20;;;;;;;249.07;144.10;;;;;;;;;;5048271;28;20172;-49
2022/09/09 06:28:47;;;;;;;227.77;139.43;;;;;;;;;;5048087;28;20207;-50
2022/09/09 06:31:14;;;;;;;223.90;138.40;;;;;;;;;;5048369;28;20787;-49
2022/09/09 06:33:41;;;;;;;225.83;139.63;;;;;;;;;;5048176;28;20290;-49
2022/09/09 06:36:08;;;;;;;229.73;139.93;;;;;;;;;;5048283;28;20176;-49
2022/09/09 06:38:34;;;;;;;239.33;142.97;;;;;;;;;;5048452;28;20906;-50
2022/09/09 06:41:01;;;;;;;199.50;131.80;;;;;;;;;;5047157;28;20335;-49
2022/09/09 06:43:27;;;;;;;204.03;129.83;;;;;;;;;;5046948;28;20207;-49
2022/09/09 06:45:59;;;;;;;234.60;140.53;;;;;;;;;;5048373;28;20230;-50
2022/09/09 06:48:26;;;;;;;244.93;144.87;;;;;;;;;;5048033;28;20210;-50
2022/09/09 06:51:07;;;;;;;215.10;132.30;;;;;;;;;;5048449;28;20510;-50
2022/09/09 06:53:34;;;;;;;235.13;140.47;;;;;;;;;;5048056;28;20214;-50
2022/09/09 06:56:17;;;;;;;226.97;139.87;;;;;;;;;;5048312;28;20202;-50
2022/09/09 06:58:43;;;;;;;222.13;133.10;;;;;;;;;;5049247;28;20160;-50
2022/09/09 07:01:12;;;;;;;231.33;135.97;;;;;;;;;;5052070;28;20179;-50
2022/09/09 07:03:38;;;;;;;223.63;131.77;;;;;;;;;;5052020;28;20230;-50
2022/09/09 07:06:04;;;;;;;257.33;146.73;;;;;;;;;;5051969;28;20167;-50
2022/09/09 07:08:31;;;;;;;250.07;143.43;;;;;;;;;;5051772;28;20273;-50
2022/09/09 07:11:02;;;;;;;300.87;165.17;;;;;;;;;;5048274;28;20182;-55
2022/09/09 07:13:28;;;;;;;274.77;159.80;;;;;;;;;;5016960;28;20203;-55
2022/09/09 07:15:54;;;;;;;272.73;162.80;;;;;;;;;;5029418;28;20633;-55
2022/09/09 07:18:20;;;;;;;336.87;190.33;;;;;;;;;;5027799;28;20195;-54
2022/09/09 07:20:56;;;;;;;310.53;179.17;;;;;;;;;;5028275;28;20471;-54
2022/09/09 07:23:22;;;;;;;335.43;189.80;;;;;;;;;;5022178;28;20675;-54
2022/09/09 07:25:48;;;;;;;281.63;156.73;;;;;;;;;;5018722;28;20549;-55
2022/09/09 07:28:15;;;;;;;352.97;195.17;;;;;;;;;;5028911;28;20259;-55
2022/09/09 07:30:42;;;;;;;315.63;176.63;;;;;;;;;;5021475;28;20457;-56
2022/09/09 07:33:09;;;;;;;373.67;203.77;;;;;;;;;;5011816;28;20671;-55
2022/09/09 07:35:36;;;;;;;324.40;173.90;;;;;;;;;;5020849;28;20688;-55
2022/09/09 07:38:06;;;;;;;312.85;179.38;;;;;;;;;;5020695;28;20257;-55
2022/09/09 07:40:32;;;;;;;342.90;193.17;;;;;;;;;;5022136;28;22061;-55
2022/09/09 07:42:59;;;;;;;345.73;195.60;;;;;;;;;;5023251;28;20204;-55
2022/09/09 07:45:25;;;;;;;340.83;200.33;;;;;;;;;;5017131;28;20608;-55
2022/09/09 07:47:52;;;;;;;323.73;187.20;;;;;;;;;;5016269;28;20211;-56
2022/09/09 07:50:18;;;;;;;333.10;193.20;;;;;;;;;;5022960;28;20271;-55
2022/09/09 07:52:44;;;;;;;295.83;184.87;;;;;;;;;;5021143;28;20196;-55
2022/09/09 07:55:10;;;;;;;303.63;171.67;;;;;;;;;;5020688;28;20246;-55
2022/09/09 07:57:36;;;;;;;317.80;187.68;;;;;;;;;;5019158;28;21133;-55
2022/09/09 08:00:04;;;;;;;295.23;171.77;;;;;;;;;;5026289;28;20184;-55
2022/09/09 08:02:30;;;;;;;340.67;195.90;;;;;;;;;;5030956;28;20973;-55
2022/09/09 08:04:56;;;;;;;373.13;212.00;;;;;;;;;;5023778;28;20820;-55
2022/09/09 08:07:23;;;;;;;331.73;193.10;;;;;;;;;;5021338;28;20196;-55
2022/09/09 08:09:49;;;;;;;326.30;184.48;;;;;;;;;;5026543;28;20190;-55
2022/09/09 08:12:15;;;;;;;330.23;194.38;;;;;;;;;;5022711;23;20238;-55
2022/09/09 08:14:41;;;;;;;311.45;187.07;;;;;;;;;;4995252;28;20213;-55
2022/09/09 08:17:07;;;;;;;317.83;196.68;;;;;;;;;;4991409;28;20367;-55
2022/09/09 08:19:35;;;;;;;344.17;210.30;;;;;;;;;;4990963;28;20603;-55
2022/09/09 08:22:02;;;;;;;323.45;200.85;;;;;;;;;;4993659;28;20295;-55
2022/09/09 08:24:28;;;;;;;333.90;206.55;;;;;;;;;;4985009;28;20212;-55
2022/09/09 08:26:54;;;;;;;401.98;231.77;;;;;;;;;;4983721;28;20181;-55
2022/09/09 08:29:20;;;;;;;318.98;188.95;;;;;;;;;;4988713;28;20990;-55
2022/09/09 08:31:57;;;;;;;334.63;193.85;;;;;;;;;;4985956;28;20195;-55
2022/09/09 08:34:23;;;;;;;386.92;220.15;;;;;;;;;;4988184;28;20212;-55
2022/09/09 08:36:50;;;;;;;299.80;182.55;;;;;;;;;;4990749;28;20189;-55
2022/09/09 08:39:17;;;;;;;402.30;220.25;;;;;;;;;;4991897;28;20192;-55
2022/09/09 08:42:02;;;;;;;366.17;217.15;;;;;;;;;;4980738;28;20716;-55
2022/09/09 08:44:30;;;;;;;343.95;200.68;;;;;;;;;;4978641;28;20193;-55
2022/09/09 08:47:04;;;;;;;335.85;193.43;;;;;;;;;;4988383;28;20185;-54
2022/09/09 08:49:59;;;;;;;359.23;208.35;;;;;;;;;;4986536;28;20307;-54
2022/09/09 08:52:25;;;;;;;305.45;194.27;;;;;;;;;;4977902;28;20738;-54
2022/09/09 08:54:51;;;;;;;512.95;268.27;;;;;;;;;;4988617;28;20209;-54
2022/09/09 08:57:20;;;;;;;385.55;229.00;;;;;;;;;;4987142;28;20501;-54
2022/09/09 08:59:46;;;;;;;296.88;190.27;;;;;;;;;;4987453;28;20224;-54
2022/09/09 09:02:31;;;;;;;333.98;213.00;;;;;;;;;;4986728;28;20197;-54
2022/09/09 09:05:13;;;;;;;287.05;191.68;;;;;;;;;;4988352;28;20209;-54
2022/09/09 09:07:47;;;;;;;307.10;204.27;;;;;;;;;;4990768;28;20842;-54
2022/09/09 09:10:25;;;;;;;318.83;204.95;;;;;;;;;;5000241;28;20248;-54
2022/09/09 09:12:51;;;;;;;306.95;186.57;;;;;;;;;;4984446;28;20207;-54
2022/09/09 09:15:20;;;;;;;303.10;185.52;;;;;;;;;;4987955;28;20213;-54
2022/09/09 09:17:48;;;;;;;338.65;201.15;;;;;;;;;;4985858;28;20232;-54
2022/09/09 09:20:16;;;;;;;363.58;223.23;;;;;;;;;;4989839;28;20251;-54
2022/09/09 09:22:50;;;;;;;338.95;218.25;;;;;;;;;;4989978;28;20248;-54
2022/09/09 09:25:18;;;;;;;391.13;239.75;;;;;;;;;;4986662;28;20628;-54
2022/09/09 09:28:00;;;;;;;309.10;198.63;;;;;;;;;;4987858;28;20184;-54
2022/09/09 09:30:29;;;;;;;382.70;230.52;;;;;;;;;;4981872;28;20190;-54
2022/09/09 09:32:58;;;;;;;299.05;199.55;;;;;;;;;;4991199;28;20203;-54
2022/09/09 09:35:24;;;;;;;349.10;209.88;;;;;;;;;;4984594;28;20200;-54
2022/09/09 09:37:50;;;;;;;326.85;210.15;;;;;;;;;;4990274;28;20205;-54
2022/09/09 09:40:18;;;;;;;380.17;235.25;;;;;;;;;;4982623;28;20178;-54
2022/09/09 09:43:07;;;;;;;400.42;233.63;;;;;;;;;;4986727;28;20210;-54
2022/09/09 09:45:35;;;;;;;341.58;212.13;;;;;;;;;;4988078;28;20705;-54
2022/09/09 09:48:05;;;;;;;370.65;225.70;;;;;;;;;;4995845;28;20189;-54
2022/09/09 09:50:32;;;;;;;379.38;231.05;;;;;;;;;;4983591;28;20519;-54
2022/09/09 09:53:01;;;;;;;381.27;229.80;;;;;;;;;;4988028;28;20268;-54
2022/09/09 09:55:29;;;;;;;373.90;229.48;;;;;;;;;;4991843;28;20239;-54
2022/09/09 09:58:00;;;;;;;398.40;235.20;;;;;;;;;;4987055;28;20248;-54
2022/09/09 10:00:26;;;;;;;361.10;222.85;;;;;;;;;;4982049;28;20731;-54
2022/09/09 10:02:53;;;;;;;372.17;228.05;;;;;;;;;;4992099;28;20213;-54
2022/09/09 10:05:21;;;;;;;409.73;236.68;;;;;;;;;;4986119;28;20238;-54
2022/09/09 10:07:47;;;;;;;360.92;219.35;;;;;;;;;;4984231;28;20192;-54
2022/09/09 10:10:21;;;;;;;422.67;239.80;;;;;;;;;;4990092;28;20239;-54
2022/09/09 10:12:56;;;;;;;428.85;243.85;;;;;;;;;;4984716;28;20327;-54
2022/09/09 10:15:40;;;;;;;416.10;239.80;;;;;;;;;;4980849;28;20216;-54
2022/09/09 10:18:19;;;;;;;401.77;237.95;;;;;;;;;;4989229;28;20624;-54
2022/09/09 10:20:45;;;;;;;387.35;237.88;;;;;;;;;;4985696;28;20656;-54
2022/09/09 10:23:11;;;;;;;420.40;258.67;;;;;;;;;;4982027;28;20224;-54
2022/09/09 10:25:47;;;;;;;396.20;241.82;;;;;;;;;;4990070;28;20197;-54
2022/09/09 10:28:40;;;;;;;401.65;240.82;;;;;;;;;;4984731;28;20672;-54
2022/09/09 10:31:20;;;;;;;429.63;246.10;;;;;;;;;;4984987;28;20200;-54
2022/09/09 10:34:11;;;;;;;382.85;240.45;;;;;;;;;;4981073;28;20219;-54
2022/09/09 10:36:39;;;;;;;388.83;243.57;;;;;;;;;;4988202;28;20719;-54
2022/09/09 10:39:15;;;;;;;401.77;244.93;;;;;;;;;;4987135;28;20180;-54
2022/09/09 10:41:45;;;;;;;421.35;251.35;;;;;;;;;;4984927;28;20515;-54
2022/09/09 10:44:14;;;;;;;374.60;231.07;;;;;;;;;;4995871;28;20258;-54
2022/09/09 10:46:51;;;;;;;353.88;221.98;;;;;;;;;;4990837;28;20185;-54
2022/09/09 10:49:33;;;;;;;386.10;236.65;;;;;;;;;;5000032;28;20580;-54
2022/09/09 10:52:05;;;;;;;380.67;234.57;;;;;;;;;;4991797;28;20186;-54
2022/09/09 10:54:49;;;;;;;374.27;227.55;;;;;;;;;;4993646;28;20270;-54
2022/09/09 10:57:36;;;;;;;373.85;233.27;;;;;;;;;;4992956;28;20180;-54
2022/09/09 11:00:05;;;;;;;381.00;241.13;;;;;;;;;;4993246;28;20207;-54
2022/09/09 11:02:32;;;;;;;367.00;231.98;;;;;;;;;;4993753;28;20292;-54
2022/09/09 11:05:04;;;;;;;393.45;244.52;;;;;;;;;;4992472;28;20212;-54
2022/09/09 11:07:34;;;;;;;419.17;257.63;;;;;;;;;;4988733;28;20665;-54
2022/09/09 11:10:02;;;;;;;413.38;253.07;;;;;;;;;;4988208;28;20185;-54
2022/09/09 11:12:30;;;;;;;437.30;264.52;;;;;;;;;;4981309;28;20201;-54
2022/09/09 11:15:08;;;;;;;378.27;238.82;;;;;;;;;;4985087;28;20205;-54
2022/09/09 11:17:37;;;;;;;399.33;245.95;;;;;;;;;;4991196;28;20443;-54
2022/09/09 11:20:05;;;;;;;392.25;243.43;;;;;;;;;;4983238;28;20830;-54
2022/09/09 11:22:38;;;;;;;402.13;248.13;;;;;;;;;;4992507;28;20262;-54
2022/09/09 11:25:23;;;;;;;389.95;242.25;;;;;;;;;;4992161;28;20235;-54
2022/09/09 11:27:57;;;;;;;342.25;219.65;;;;;;;;;;4997513;28;20177;-54
2022/09/09 11:30:34;;;;;;;359.08;231.23;;;;;;;;;;4998735;28;20180;-54
2022/09/09 11:33:15;;;;;;;366.58;235.57;;;;;;;;;;4993616;28;20192;-54
2022/09/09 11:35:41;;;;;;;391.73;238.60;;;;;;;;;;4994300;28;20243;-54
2022/09/09 11:38:26;;;;;;;354.48;233.38;;;;;;;;;;5002008;28;20672;-54
2022/09/09 11:41:10;;;;;;;404.60;257.05;;;;;;;;;;4999131;28;20196;-54
2022/09/09 11:43:41;;;;;;;365.73;234.88;;;;;;;;;;4992701;28;20567;-54
2022/09/09 11:46:07;;;;;;;378.52;245.90;;;;;;;;;;4997224;28;20323;-54
2022/09/09 11:48:45;;;;;;;365.02;237.35;;;;;;;;;;4991632;28;20186;-54
2022/09/09 11:51:25;;;;;;;340.10;225.75;;;;;;;;;;5000841;28;20184;-54
2022/09/09 11:53:54;;;;;;;375.02;243.13;;;;;;;;;;4990848;28;20208;-54
2022/09/09 11:56:26;;;;;;;389.30;248.85;;;;;;;;;;4993177;28;20185;-54
2022/09/09 11:59:00;;;;;;;390.95;253.02;;;;;;;;;;4996313;28;20206;-54
2022/09/09 12:01:30;;;;;;;377.42;246.52;;;;;;;;;;4999858;28;20188;-54
2022/09/09 12:04:19;;;;;;;371.55;243.98;;;;;;;;;;5002827;28;20220;-54
2022/09/09 12:06:56;;;;;;;372.00;247.82;;;;;;;;;;4988671;28;20201;-54
2022/09/09 12:09:23;;;;;;;388.73;247.80;;;;;;;;;;5003485;28;20730;-54
2022/09/09 12:11:49;;;;;;;531.90;311.90;;;;;;;;;;4986380;28;20213;-54
2022/09/09 12:14:34;;;;;;;385.85;256.50;;;;;;;;;;4996977;28;20216;-54
2022/09/09 12:17:09;;;;;;;436.42;286.23;;;;;;;;;;4988950;28;20323;-54
2022/09/09 12:19:35;;;;;;;395.10;267.42;;;;;;;;;;4987175;28;20209;-54
2022/09/09 12:22:05;;;;;;;402.75;258.23;;;;;;;;;;4994650;28;20230;-53
2022/09/09 12:24:42;;;;;;;379.13;256.02;;;;;;;;;;4992780;28;20228;-53
2022/09/09 12:27:17;;;;;;;390.88;254.35;;;;;;;;;;4996466;28;20255;-53
2022/09/09 12:29:49;;;;;;;391.92;257.02;;;;;;;;;;4996595;28;20196;-53
2022/09/09 12:32:20;;;;;;;397.08;261.80;;;;;;;;;;5002318;28;20393;-53
2022/09/09 12:34:54;;;;;;;382.77;257.40;;;;;;;;;;4998634;28;20205;-53
2022/09/09 12:37:35;;;;;;;371.70;250.48;;;;;;;;;;5001004;28;20193;-53
2022/09/09 12:40:03;;;;;;;400.67;269.98;;;;;;;;;;4997357;28;20270;-53
2022/09/09 12:42:29;;;;;;;436.30;281.33;;;;;;;;;;4989495;28;20640;-53
2022/09/09 12:44:59;;;;;;;367.27;241.00;;;;;;;;;;4994117;28;20197;-53
2022/09/09 12:47:40;;;;;;;376.60;248.45;;;;;;;;;;4997087;28;20173;-53
2022/09/09 12:50:16;;;;;;;423.00;270.70;;;;;;;;;;4992568;28;20308;-53
2022/09/09 12:52:42;;;;;;;376.27;247.38;;;;;;;;;;4997757;28;20884;-53
2022/09/09 12:55:16;;;;;;;409.65;259.30;;;;;;;;;;4987538;28;20201;-53
2022/09/09 12:57:43;;;;;;;393.55;257.45;;;;;;;;;;4991569;28;20661;-53
2022/09/09 13:00:17;;;;;;;460.25;287.75;;;;;;;;;;4987437;28;20196;-53
2022/09/09 13:02:51;;;;;;;412.35;265.67;;;;;;;;;;4990396;28;20285;-53
2022/09/09 13:05:21;;;;;;;417.98;269.52;;;;;;;;;;4988866;28;20196;-53
2022/09/09 13:07:47;;;;;;;412.40;271.80;;;;;;;;;;4992171;28;20190;-53
2022/09/09 13:10:14;;;;;;;397.60;262.92;;;;;;;;;;4993612;28;20200;-53
2022/09/09 13:12:41;;;;;;;479.67;301.15;;;;;;;;;;4985875;28;20205;-53
2022/09/09 13:15:13;;;;;;;428.80;281.92;;;;;;;;;;4972881;28;20582;-53
2022/09/09 13:17:40;;;;;;;494.70;306.60;;;;;;;;;;4974743;28;21067;-53
2022/09/09 13:20:06;;;;;;;427.42;287.27;;;;;;;;;;4980305;28;20888;-53
2022/09/09 13:22:36;;;;;;;437.65;295.50;;;;;;;;;;4997725;28;20254;-53
2022/09/09 13:25:07;;;;;;;450.33;292.38;;;;;;;;;;4988377;28;20201;-54
2022/09/09 13:27:34;;;;;;;419.45;279.90;;;;;;;;;;4998170;28;20199;-53
2022/09/09 13:30:01;;;;;;;410.55;273.00;;;;;;;;;;4988498;28;20220;-55
2022/09/09 13:32:28;;;;;;;406.63;281.38;;;;;;;;;;4991138;28;20242;-53
2022/09/09 13:34:55;;;;;;;421.33;293.88;;;;;;;;;;4998107;28;20693;-52
2022/09/09 13:37:25;;;;;;;391.15;292.17;;;;;;;;;;4995354;28;20246;-53
2022/09/09 13:39:52;;;;;;;401.92;294.25;;;;;;;;;;4995661;28;20184;-53
2022/09/09 13:42:29;;;;;;;432.77;303.15;;;;;;;;;;4996707;28;20213;-53
2022/09/09 13:44:56;;;;;;;457.52;314.85;;;;;;;;;;4990584;28;20216;-53
2022/09/09 13:47:27;;;;;;;415.63;304.75;;;;;;;;;;4996911;28;20207;-53
2022/09/09 13:49:53;;;;;;;424.52;319.02;;;;;;;;;;4994600;28;21238;-53
2022/09/09 13:52:21;;;;;;;418.10;307.85;;;;;;;;;;4986553;28;20993;-53
2022/09/09 13:54:49;;;;;;;435.27;318.77;;;;;;;;;;4982354;28;20213;-53
2022/09/09 13:57:19;;;;;;;505.55;334.63;;;;;;;;;;4985522;28;21100;-52
2022/09/09 13:59:46;;;;;;;416.42;293.63;;;;;;;;;;4990280;28;20307;-52
2022/09/09 14:02:12;;;;;;;431.45;297.50;;;;;;;;;;4989406;28;20206;-53
2022/09/09 14:04:40;;;;;;;437.83;292.73;;;;;;;;;;4991726;28;20197;-52
2022/09/09 14:07:08;;;;;;;445.00;287.45;;;;;;;;;;4987345;28;20180;-52
2022/09/09 14:09:34;;;;;;;424.95;279.98;;;;;;;;;;4984685;28;24774;-53